createdAt,value
2023-05-07T00:00:56.950Z,7.47
2023-05-07T00:03:29.624Z,7.47
2023-05-07T00:05:59.140Z,7.47
2023-05-07T00:08:28.268Z,7.45
2023-05-07T00:10:59.771Z,7.45
2023-05-07T00:13:31.305Z,7.46
2023-05-07T00:16:00.397Z,7.47
2023-05-07T00:18:32.215Z,7.49
2023-05-07T00:21:03.812Z,7.46
2023-05-07T00:23:33.916Z,7.45
2023-05-07T00:26:07.546Z,7.47
2023-05-07T00:28:40.491Z,7.48
2023-05-07T00:31:10.080Z,7.50
2023-05-07T00:33:40.213Z,7.52
2023-05-07T00:36:11.521Z,7.53
2023-05-07T00:38:44.029Z,7.52
2023-05-07T00:41:13.035Z,7.50
2023-05-07T00:43:55.347Z,7.50
2023-05-07T00:46:30.489Z,7.49
2023-05-07T00:49:00.477Z,7.39
2023-05-07T00:51:29.697Z,7.40
2023-05-07T00:54:02.933Z,7.42
2023-05-07T00:56:35.254Z,7.45
2023-05-07T00:59:09.798Z,7.43
2023-05-07T01:01:42.088Z,7.41
2023-05-07T01:04:19.662Z,7.41
2023-05-07T01:06:57.377Z,7.32
2023-05-07T01:09:30.181Z,7.32
2023-05-07T01:12:03.020Z,7.32
2023-05-07T01:14:41.878Z,7.35
2023-05-07T01:17:13.871Z,7.38
2023-05-07T01:19:43.092Z,7.40
2023-05-07T01:22:12.539Z,7.41
2023-05-07T01:24:51.949Z,7.42
2023-05-07T01:27:20.723Z,7.42
2023-05-07T01:29:50.334Z,7.42
2023-05-07T01:32:32.916Z,7.44
2023-05-07T01:35:11.123Z,7.46
2023-05-07T01:37:43.080Z,7.48
2023-05-07T01:40:12.763Z,7.46
2023-05-07T01:42:48.854Z,7.44
2023-05-07T01:45:18.024Z,7.42
2023-05-07T01:47:47.420Z,7.41
2023-05-07T01:50:21.902Z,7.41
2023-05-07T01:52:52.214Z,7.38
2023-05-07T01:55:23.367Z,7.36
2023-05-07T01:58:01.217Z,7.33
2023-05-07T02:00:33.124Z,7.31
2023-05-07T02:03:05.316Z,7.30
2023-05-07T02:05:46.342Z,7.27
2023-05-07T02:08:43.774Z,7.23
2023-05-07T02:11:27.930Z,7.24
2023-05-07T02:14:02.429Z,7.28
2023-05-07T02:16:47.323Z,7.31
2023-05-07T02:19:17.183Z,7.31
2023-05-07T02:21:49.008Z,7.28
2023-05-07T02:24:24.691Z,7.26
2023-05-07T02:26:57.669Z,7.23
2023-05-07T02:29:30.667Z,7.23
2023-05-07T02:31:59.283Z,7.23
2023-05-07T02:34:31.275Z,7.23
2023-05-07T02:37:02.593Z,7.23
2023-05-07T02:39:34.420Z,7.25
2023-05-07T02:42:06.449Z,7.17
2023-05-07T02:44:36.599Z,7.15
2023-05-07T02:47:11.335Z,7.16
2023-05-07T02:49:47.240Z,7.12
2023-05-07T02:52:19.483Z,7.10
2023-05-07T02:54:48.096Z,7.11
2023-05-07T02:57:19.734Z,7.11
2023-05-07T02:59:48.443Z,7.14
2023-05-07T03:02:30.039Z,7.17
2023-05-07T03:05:01.816Z,7.16
2023-05-07T03:07:35.172Z,7.17
2023-05-07T03:10:04.949Z,7.18
2023-05-07T03:12:39.011Z,7.11
2023-05-07T03:15:13.349Z,7.09
2023-05-07T03:17:45.225Z,7.10
2023-05-07T03:20:17.663Z,7.10
2023-05-07T03:22:47.325Z,7.12
2023-05-07T03:25:15.927Z,7.14
2023-05-07T03:27:46.489Z,7.16
2023-05-07T03:30:15.898Z,7.17
2023-05-07T03:32:45.071Z,7.16
2023-05-07T03:35:15.628Z,7.13
2023-05-07T03:37:48.538Z,7.14
2023-05-07T03:40:23.467Z,7.09
2023-05-07T03:42:56.415Z,7.09
2023-05-07T03:45:27.499Z,7.05
2023-05-07T03:48:10.468Z,7.06
2023-05-07T03:50:39.967Z,7.06
2023-05-07T03:53:11.767Z,7.05
2023-05-07T03:55:46.546Z,7.07
2023-05-07T03:58:17.453Z,7.10
2023-05-07T04:00:46.624Z,7.09
2023-05-07T04:03:22.300Z,7.09
2023-05-07T04:05:50.544Z,7.08
2023-05-07T04:08:18.752Z,7.08
2023-05-07T04:11:01.318Z,7.11
2023-05-07T04:13:37.618Z,7.11
2023-05-07T04:16:09.430Z,7.04
2023-05-07T04:18:39.231Z,7.04
2023-05-07T04:21:20.373Z,7.08
2023-05-07T04:23:58.868Z,7.13
2023-05-07T04:26:31.002Z,7.14
2023-05-07T04:29:00.640Z,7.17
2023-05-07T04:31:36.513Z,7.21
2023-05-07T04:34:06.217Z,7.23
2023-05-07T04:36:35.295Z,7.23
2023-05-07T04:39:07.711Z,7.24
2023-05-07T04:41:37.812Z,7.25
2023-05-07T04:44:11.635Z,7.26
2023-05-07T04:46:41.042Z,7.25
2023-05-07T04:49:10.054Z,7.27
2023-05-07T04:51:39.076Z,7.28
2023-05-07T04:54:19.685Z,7.28
2023-05-07T04:56:51.107Z,7.27
2023-05-07T04:59:25.755Z,7.24
2023-05-07T05:02:03.967Z,7.24
2023-05-07T05:04:33.688Z,7.25
2023-05-07T05:07:06.252Z,7.27
2023-05-07T05:09:35.944Z,7.29
2023-05-07T05:12:07.959Z,7.33
2023-05-07T05:14:37.075Z,7.35
2023-05-07T05:17:06.751Z,7.30
2023-05-07T05:19:42.578Z,7.32
2023-05-07T05:22:11.115Z,7.41
2023-05-07T05:24:41.005Z,7.44
2023-05-07T05:27:10.609Z,7.51
2023-05-07T05:29:40.919Z,7.53
2023-05-07T05:32:12.253Z,7.55
2023-05-07T05:34:46.429Z,7.60
2023-05-07T05:37:15.550Z,7.63
2023-05-07T05:39:44.903Z,7.64
2023-05-07T05:42:17.146Z,7.66
2023-05-07T05:44:49.066Z,7.64
2023-05-07T05:47:20.930Z,7.66
2023-05-07T05:49:52.857Z,7.70
2023-05-07T05:52:24.513Z,7.68
2023-05-07T05:54:59.972Z,7.60
2023-05-07T05:57:38.838Z,7.64
2023-05-07T06:00:14.599Z,7.67
2023-05-07T06:02:49.676Z,7.66
2023-05-07T06:05:22.173Z,7.65
2023-05-07T06:07:52.526Z,7.63
2023-05-07T06:10:20.881Z,7.62
2023-05-07T06:12:52.814Z,7.60
2023-05-07T06:15:24.720Z,7.59
2023-05-07T06:17:59.852Z,7.61
2023-05-07T06:20:29.343Z,7.64
2023-05-07T06:23:13.053Z,7.61
2023-05-07T06:25:50.214Z,7.62
2023-05-07T06:28:21.244Z,7.62
2023-05-07T06:30:50.887Z,7.66
2023-05-07T06:33:25.535Z,7.74
2023-05-07T06:35:54.966Z,7.79
2023-05-07T06:38:26.897Z,7.83
2023-05-07T06:41:03.913Z,7.87
2023-05-07T06:43:36.666Z,7.90
2023-05-07T06:46:25.444Z,7.92
2023-05-07T06:48:54.810Z,7.89
2023-05-07T06:51:37.429Z,7.84
2023-05-07T06:54:07.691Z,7.86
2023-05-07T06:56:42.284Z,7.88
2023-05-07T06:59:12.121Z,7.90
2023-05-07T07:01:42.697Z,7.92
2023-05-07T07:04:13.268Z,7.92
2023-05-07T07:06:43.004Z,7.97
2023-05-07T07:09:16.300Z,8.03
2023-05-07T07:11:47.916Z,8.11
2023-05-07T07:14:16.598Z,8.18
2023-05-07T07:16:48.907Z,8.21
2023-05-07T07:19:21.821Z,8.24
2023-05-07T07:21:59.184Z,8.27
2023-05-07T07:24:32.212Z,8.31
2023-05-07T07:27:12.057Z,8.38
2023-05-07T07:29:50.724Z,8.41
2023-05-07T07:32:38.321Z,8.48
2023-05-07T07:35:13.994Z,8.49
2023-05-07T07:37:49.239Z,8.47
2023-05-07T07:40:22.289Z,8.43
2023-05-07T07:42:55.226Z,8.41
2023-05-07T07:45:44.406Z,8.36
2023-05-07T07:48:16.172Z,8.32
2023-05-07T07:50:56.942Z,8.37
2023-05-07T07:53:40.220Z,8.41
2023-05-07T07:56:32.841Z,8.31
2023-05-07T07:59:10.377Z,8.25
2023-05-07T08:01:56.020Z,8.31
2023-05-07T08:08:04.863Z,8.24
2023-05-07T08:10:55.666Z,8.13
2023-05-07T08:13:44.103Z,8.06
2023-05-07T08:16:24.676Z,8.03
2023-05-07T08:19:17.185Z,8.11
2023-05-07T08:22:01.556Z,8.15
2023-05-07T08:27:46.163Z,8.14
2023-05-07T08:30:24.523Z,8.15
2023-05-07T08:33:08.411Z,8.24
2023-05-07T08:35:43.433Z,8.26
2023-05-07T08:38:21.808Z,8.22
2023-05-07T08:44:27.286Z,8.42
2023-05-07T08:47:01.640Z,8.56
2023-05-07T08:49:42.986Z,8.69
2023-05-07T08:52:23.851Z,8.82
2023-05-07T08:55:03.490Z,9.01
2023-05-07T08:57:52.474Z,9.17
2023-05-07T09:00:28.281Z,9.36
2023-05-07T09:03:18.032Z,9.54
2023-05-07T09:05:55.490Z,9.55
2023-05-07T09:08:29.282Z,9.54
2023-05-07T09:11:02.690Z,9.50
2023-05-07T09:14:02.545Z,9.44
2023-05-07T09:17:09.222Z,9.46
2023-05-07T09:19:49.264Z,9.49
2023-05-07T09:22:59.206Z,9.51
2023-05-07T09:25:51.224Z,9.44
2023-05-07T09:28:34.240Z,9.45
2023-05-07T09:31:05.796Z,9.51
2023-05-07T09:33:47.085Z,9.59
2023-05-07T09:36:28.717Z,9.65
2023-05-07T09:39:16.407Z,9.70
2023-05-07T09:42:04.419Z,9.70
2023-05-07T09:44:52.553Z,9.70
2023-05-07T09:47:43.579Z,9.62
2023-05-07T09:51:05.083Z,9.49
2023-05-07T09:53:53.229Z,9.48
2023-05-07T09:56:38.244Z,9.61
2023-05-07T09:59:39.278Z,9.83
2023-05-07T10:02:43.310Z,9.91
2023-05-07T10:05:21.406Z,9.90
2023-05-07T10:08:07.389Z,9.96
2023-05-07T10:10:58.664Z,9.90
2023-05-07T10:14:20.400Z,9.87
2023-05-07T10:17:16.538Z,9.90
2023-05-07T10:19:56.538Z,9.90
2023-05-07T10:23:02.197Z,9.88
2023-05-07T10:25:38.263Z,9.91
2023-05-07T10:28:14.262Z,10.06
2023-05-07T10:31:10.666Z,10.20
2023-05-07T10:33:54.184Z,10.33
2023-05-07T10:36:54.385Z,10.36
2023-05-07T10:39:34.368Z,10.32
2023-05-07T10:53:02.927Z,10.17
2023-05-07T10:55:46.425Z,10.33
2023-05-07T10:59:41.010Z,10.39
2023-05-07T11:03:03.369Z,10.42
2023-05-07T11:06:31.739Z,10.42
2023-05-07T11:09:12.572Z,10.36
2023-05-07T11:11:52.581Z,10.39
2023-05-07T11:15:12.318Z,10.49
2023-05-07T11:18:00.772Z,10.71
2023-05-07T11:20:53.945Z,10.97
2023-05-07T11:23:36.357Z,11.11
2023-05-07T11:26:17.548Z,11.06
2023-05-07T11:28:48.387Z,10.93
2023-05-07T11:31:33.691Z,10.76
2023-05-07T11:34:07.982Z,10.59
2023-05-07T11:36:47.907Z,10.49
2023-05-07T11:39:57.716Z,10.41
2023-05-07T11:42:36.364Z,10.31
2023-05-07T11:45:21.694Z,10.28
2023-05-07T11:47:52.978Z,10.26
2023-05-07T11:50:32.902Z,10.26
2023-05-07T11:53:16.756Z,10.20
2023-05-07T11:55:59.174Z,10.16
2023-05-07T11:58:37.920Z,10.11
2023-05-07T12:01:17.353Z,10.19
2023-05-07T12:03:55.424Z,10.30
2023-05-07T12:06:39.776Z,10.48
2023-05-07T12:09:29.119Z,10.70
2023-05-07T12:12:05.454Z,10.97
2023-05-07T12:14:43.766Z,11.18
2023-05-07T12:17:21.780Z,11.25
2023-05-07T12:19:54.475Z,11.23
2023-05-07T12:22:30.725Z,11.32
2023-05-07T12:25:05.955Z,11.47
2023-05-07T12:27:54.962Z,11.51
2023-05-07T12:30:37.886Z,11.37
2023-05-07T12:33:20.089Z,11.39
2023-05-07T12:35:54.343Z,11.47
2023-05-07T12:38:29.275Z,11.59
2023-05-07T12:41:14.269Z,11.64
2023-05-07T12:43:47.860Z,11.70
2023-05-07T12:46:19.315Z,11.72
2023-05-07T12:49:26.419Z,11.66
2023-05-07T12:52:01.822Z,11.51
2023-05-07T12:54:36.656Z,11.47
2023-05-07T12:57:16.935Z,11.56
2023-05-07T12:59:46.437Z,11.72
2023-05-07T13:02:56.584Z,11.85
2023-05-07T13:06:12.261Z,11.94
2023-05-07T13:09:08.940Z,11.90
2023-05-07T13:11:39.664Z,11.84
2023-05-07T13:14:13.881Z,11.81
2023-05-07T13:16:49.784Z,11.77
2023-05-07T13:19:21.644Z,11.74
2023-05-07T13:21:55.939Z,11.77
2023-05-07T13:24:37.532Z,11.81
2023-05-07T13:27:14.139Z,11.80
2023-05-07T13:30:05.261Z,11.63
2023-05-07T13:32:37.851Z,11.40
2023-05-07T13:35:11.674Z,11.27
2023-05-07T13:37:54.285Z,11.20
2023-05-07T13:40:31.554Z,11.18
2023-05-07T13:43:15.295Z,11.14
2023-05-07T13:45:47.737Z,11.15
2023-05-07T13:48:22.336Z,11.19
2023-05-07T13:50:51.948Z,11.17
2023-05-07T13:53:25.079Z,11.20
2023-05-07T13:55:55.009Z,11.19
2023-05-07T13:58:26.537Z,11.23
2023-05-07T14:00:56.663Z,11.25
2023-05-07T14:03:26.532Z,11.23
2023-05-07T14:05:56.587Z,11.25
2023-05-07T14:08:35.944Z,11.25
2023-05-07T14:11:14.625Z,11.26
2023-05-07T14:13:50.089Z,11.28
2023-05-07T14:16:27.191Z,11.29
2023-05-07T14:19:13.739Z,11.26
2023-05-07T14:21:47.293Z,11.21
2023-05-07T14:24:34.428Z,11.15
2023-05-07T14:27:15.877Z,11.06
2023-05-07T14:29:57.864Z,11.02
2023-05-07T14:32:35.361Z,10.99
2023-05-07T14:35:09.592Z,10.99
2023-05-07T14:38:29.186Z,11.00
2023-05-07T14:41:15.843Z,11.01
2023-05-07T14:43:50.679Z,10.98
2023-05-07T14:46:22.589Z,11.00
2023-05-07T14:48:52.082Z,11.02
2023-05-07T14:51:25.470Z,11.02
2023-05-07T14:53:55.826Z,11.05
2023-05-07T14:56:41.205Z,11.10
2023-05-07T14:59:12.117Z,11.15
2023-05-07T15:01:57.636Z,11.18
2023-05-07T15:04:28.151Z,11.23
2023-05-07T15:07:01.037Z,11.31
2023-05-07T15:09:39.952Z,11.41
2023-05-07T15:12:16.487Z,11.50
2023-05-07T15:14:49.006Z,11.61
2023-05-07T15:17:19.778Z,11.59
2023-05-07T15:20:12.153Z,11.50
2023-05-07T15:23:07.659Z,11.40
2023-05-07T15:25:46.154Z,11.25
2023-05-07T15:28:19.573Z,11.17
2023-05-07T15:30:52.173Z,11.14
2023-05-07T15:33:23.161Z,11.10
2023-05-07T15:41:05.966Z,11.06
2023-05-07T15:44:23.095Z,11.05
2023-05-07T15:47:11.541Z,11.05
2023-05-07T15:49:48.245Z,11.15
2023-05-07T15:52:36.075Z,11.22
2023-05-07T15:55:35.779Z,11.29
2023-05-07T15:58:06.801Z,11.31
2023-05-07T16:00:40.510Z,11.35
2023-05-07T16:03:14.913Z,11.35
2023-05-07T16:05:57.744Z,11.33
2023-05-07T16:08:31.002Z,11.28
2023-05-07T16:11:11.963Z,11.27
2023-05-07T16:13:50.881Z,11.29
2023-05-07T16:16:41.537Z,11.25
2023-05-07T16:19:32.076Z,11.19
2023-05-07T16:22:15.566Z,11.13
2023-05-07T16:25:11.319Z,11.04
2023-05-07T16:28:05.940Z,10.97
2023-05-07T16:30:53.716Z,10.85
2023-05-07T16:33:28.258Z,10.76
2023-05-07T16:36:04.628Z,10.68
2023-05-07T16:38:39.485Z,10.64
2023-05-07T16:41:23.276Z,10.65
2023-05-07T16:43:54.261Z,10.68
2023-05-07T16:46:27.538Z,10.70
2023-05-07T16:49:03.515Z,10.72
2023-05-07T16:51:38.872Z,10.72
2023-05-07T16:54:12.566Z,10.69
2023-05-07T16:56:43.714Z,10.67
2023-05-07T16:59:18.051Z,10.66
2023-05-07T17:01:59.194Z,10.62
2023-05-07T17:04:29.644Z,10.58
2023-05-07T17:07:01.382Z,10.58
2023-05-07T17:09:33.674Z,10.53
2023-05-07T17:12:09.622Z,10.49
2023-05-07T17:14:40.498Z,10.47
2023-05-07T17:17:13.237Z,10.45
2023-05-07T17:19:48.175Z,10.42
2023-05-07T17:22:22.793Z,10.37
2023-05-07T17:25:09.979Z,10.31
2023-05-07T17:27:51.261Z,10.29
2023-05-07T17:30:34.726Z,10.21
2023-05-07T17:33:21.126Z,10.19
2023-05-07T17:36:34.142Z,10.17
2023-05-07T17:39:25.373Z,10.11
2023-05-07T17:41:56.136Z,10.10
2023-05-07T17:44:25.883Z,10.13
2023-05-07T17:47:09.266Z,10.11
2023-05-07T17:50:03.291Z,10.06
2023-05-07T17:52:37.315Z,9.93
2023-05-07T17:55:08.372Z,9.90
2023-05-07T17:57:37.586Z,9.87
2023-05-07T18:00:12.410Z,9.85
2023-05-07T18:03:27.134Z,9.77
2023-05-07T18:05:59.950Z,9.72
2023-05-07T18:08:47.613Z,9.72
2023-05-07T18:11:28.404Z,9.69
2023-05-07T18:14:00.718Z,9.68
2023-05-07T18:16:33.770Z,9.64
2023-05-07T18:19:07.905Z,9.61
2023-05-07T18:21:45.099Z,9.59
2023-05-07T18:24:20.431Z,9.54
2023-05-07T18:27:14.210Z,9.47
2023-05-07T18:30:05.188Z,9.39
2023-05-07T18:32:37.124Z,9.34
2023-05-07T18:35:11.193Z,9.28
2023-05-07T18:37:44.965Z,9.23
2023-05-07T18:40:25.547Z,9.19
2023-05-07T18:43:03.388Z,9.16
2023-05-07T18:45:54.542Z,9.11
2023-05-07T18:48:35.663Z,9.06
2023-05-07T18:51:23.632Z,9.04
2023-05-07T18:53:54.257Z,8.99
2023-05-07T18:56:28.347Z,8.95
2023-05-07T18:59:04.821Z,8.92
2023-05-07T19:01:39.540Z,8.87
2023-05-07T19:04:30.099Z,8.81
2023-05-07T19:07:11.055Z,8.71
2023-05-07T19:10:16.116Z,8.66
2023-05-07T19:13:07.411Z,8.55
2023-05-07T19:15:45.638Z,8.51
2023-05-07T19:18:26.393Z,8.50
2023-05-07T19:21:00.649Z,8.48
2023-05-07T19:23:34.736Z,8.45
2023-05-07T19:26:22.015Z,8.42
2023-05-07T19:29:16.416Z,8.39
2023-05-07T19:31:56.899Z,8.36
2023-05-07T19:34:43.376Z,8.31
2023-05-07T19:37:28.080Z,8.27
2023-05-07T19:40:05.873Z,8.20
2023-05-07T19:42:37.670Z,8.16
2023-05-07T19:45:16.268Z,8.14
2023-05-07T19:47:50.995Z,8.15
2023-05-07T19:50:35.462Z,8.13
2023-05-07T19:53:10.907Z,8.11
2023-05-07T19:55:47.970Z,8.08
2023-05-07T19:58:21.239Z,8.05
2023-05-07T20:00:55.396Z,8.04
2023-05-07T20:03:31.314Z,8.01
2023-05-07T20:06:07.812Z,7.98
2023-05-07T20:08:37.118Z,7.96
2023-05-07T20:11:13.371Z,7.93
2023-05-07T20:13:49.424Z,7.86
2023-05-07T20:16:22.693Z,7.78
2023-05-07T20:19:00.381Z,7.72
2023-05-07T20:21:40.874Z,7.68
2023-05-07T20:24:37.416Z,7.60
2023-05-07T20:27:38.516Z,7.55
2023-05-07T20:30:23.862Z,7.52
2023-05-07T20:36:20.463Z,7.43
2023-05-07T20:39:09.308Z,7.42
2023-05-07T20:42:26.793Z,7.35
2023-05-07T20:45:03.367Z,7.29
2023-05-07T20:47:44.593Z,7.27
2023-05-07T20:50:16.747Z,7.25
2023-05-07T20:52:51.640Z,7.24
2023-05-07T20:55:27.484Z,7.17
2023-05-07T20:57:56.338Z,7.10
2023-05-07T21:00:26.018Z,7.04
2023-05-07T21:02:56.720Z,6.98
2023-05-07T21:05:27.380Z,6.92
2023-05-07T21:07:58.870Z,6.86
2023-05-07T21:10:27.825Z,6.81
2023-05-07T21:13:04.074Z,6.78
2023-05-07T21:15:34.137Z,6.76
2023-05-07T21:18:06.783Z,6.73
2023-05-07T21:20:40.717Z,6.71
2023-05-07T21:23:13.106Z,6.68
2023-05-07T21:25:46.837Z,6.67
2023-05-07T21:28:18.315Z,6.63
2023-05-07T21:30:47.063Z,6.57
2023-05-07T21:33:19.036Z,6.51
2023-05-07T21:35:51.254Z,6.45
2023-05-07T21:38:29.762Z,6.40
2023-05-07T21:41:05.174Z,6.35
2023-05-07T21:43:39.270Z,6.29
2023-05-07T21:46:11.598Z,6.24
2023-05-07T21:48:41.024Z,6.21
2023-05-07T21:51:14.632Z,6.17
2023-05-07T21:53:52.514Z,6.11
2023-05-07T21:56:27.796Z,6.06
2023-05-07T21:59:08.262Z,6.01
2023-05-07T22:01:48.255Z,5.96
2023-05-07T22:04:20.950Z,5.91
2023-05-07T22:06:50.767Z,5.86
2023-05-07T22:09:24.590Z,5.83
2023-05-07T22:11:55.050Z,5.78
2023-05-07T22:14:24.349Z,5.73
2023-05-07T22:16:56.488Z,5.69
2023-05-07T22:19:30.993Z,5.64
2023-05-07T22:22:03.372Z,5.60
2023-05-07T22:24:36.633Z,5.56
2023-05-07T22:27:08.730Z,5.52
2023-05-07T22:29:38.462Z,5.48
2023-05-07T22:32:12.764Z,5.45
2023-05-07T22:34:43.299Z,5.43
2023-05-07T22:37:12.627Z,5.40
2023-05-07T22:39:53.721Z,5.37
2023-05-07T22:42:25.352Z,5.33
2023-05-07T22:44:58.731Z,5.29
2023-05-07T22:47:40.797Z,5.26
2023-05-07T22:50:12.585Z,5.22
2023-05-07T22:52:44.564Z,5.19
2023-05-07T22:55:17.740Z,5.16
2023-05-07T22:57:47.973Z,5.13
2023-05-07T23:00:17.996Z,5.10
2023-05-07T23:02:47.827Z,5.07
2023-05-07T23:05:23.023Z,5.02
2023-05-07T23:07:52.414Z,5.00
2023-05-07T23:10:27.626Z,4.96
2023-05-07T23:13:00.109Z,4.94
2023-05-07T23:15:32.747Z,4.92
2023-05-07T23:18:02.572Z,4.90
2023-05-07T23:20:34.127Z,4.88
2023-05-07T23:23:06.514Z,4.86
2023-05-07T23:25:38.792Z,4.84
2023-05-07T23:28:13.491Z,4.81
2023-05-07T23:30:49.898Z,4.80
2023-05-07T23:33:27.066Z,4.77
2023-05-07T23:36:06.117Z,4.76
2023-05-07T23:38:41.917Z,4.75
2023-05-07T23:41:12.834Z,4.72
2023-05-07T23:43:41.847Z,4.72
2023-05-07T23:46:12.961Z,4.66
2023-05-07T23:48:42.590Z,4.62
2023-05-07T23:51:21.843Z,4.56
2023-05-07T23:53:50.767Z,4.45
2023-05-07T23:56:20.827Z,4.42
2023-05-07T23:59:01.116Z,4.41
